Time;durP1;ratioP1;P1;durP2;ratioP2;P2;SDS_P1;SDS_P2;PMS_P1;PMS_P2;Temp;Humidity;BMP_temperature;BMP_pressure;BME280_temperature;BME280_humidity;BME280_pressure;Samples;Min_cycle;Max_cycle;Signal;HPM_P1;HPM_P2
2022/03/11 00:01:05;;;;;;;8.98;6.35;;;5.70;94.90;;;;;;5030229;28;20050;-78
2022/03/11 00:03:31;;;;;;;13.20;7.53;;;5.70;95.00;;;;;;5028980;28;20049;-78
2022/03/11 00:05:56;;;;;;;13.00;7.07;;;5.60;95.00;;;;;;5031265;28;20128;-77
2022/03/11 00:08:22;;;;;;;11.70;6.13;;;5.60;95.60;;;;;;5029821;28;20049;-77
2022/03/11 00:10:48;;;;;;;15.77;6.43;;;5.60;95.60;;;;;;5029259;28;20417;-77
2022/03/11 00:13:13;;;;;;;10.55;7.50;;;5.60;95.50;;;;;;5031047;28;20045;-77
2022/03/11 00:15:39;;;;;;;10.55;6.57;;;5.60;95.60;;;;;;5030797;28;20045;-77
2022/03/11 00:18:05;;;;;;;9.60;6.72;;;5.60;95.70;;;;;;5029051;28;20132;-77
2022/03/11 00:20:31;;;;;;;10.18;7.35;;;5.50;96.00;;;;;;5030790;28;20053;-77
2022/03/11 00:22:57;;;;;;;11.45;6.43;;;5.50;96.10;;;;;;5030881;28;20422;-77
2022/03/11 00:25:24;;;;;;;11.30;6.78;;;5.40;96.30;;;;;;5029004;28;20057;-77
2022/03/11 00:27:50;;;;;;;12.82;6.50;;;6.30;96.90;;;;;;5029597;28;20050;-77
2022/03/11 00:30:16;;;;;;;8.55;6.53;;;5.40;96.90;;;;;;5031212;28;20052;-77
2022/03/11 00:32:42;;;;;;;8.52;5.70;;;5.40;97.00;;;;;;5028629;28;20049;-77
2022/03/11 00:35:10;;;;;;;10.02;6.53;;;5.40;97.30;;;;;;5031012;28;20049;-77
2022/03/11 00:37:36;;;;;;;11.13;7.30;;;5.40;97.60;;;;;;5029609;28;20080;-76
2022/03/11 00:40:03;;;;;;;11.63;6.57;;;5.30;97.90;;;;;;5033977;28;20056;-77
2022/03/11 00:42:28;;;;;;;10.13;6.82;;;5.40;98.10;;;;;;5034672;28;20049;-77
2022/03/11 00:44:54;;;;;;;9.35;6.22;;;5.30;98.30;;;;;;5035080;28;20044;-77
2022/03/11 00:47:19;;;;;;;10.48;5.78;;;5.30;98.60;;;;;;5032884;28;20056;-77
2022/03/11 00:49:45;;;;;;;7.97;6.30;;;5.30;99.00;;;;;;5034858;28;20048;-77
2022/03/11 00:52:10;;;;;;;10.80;6.80;;;5.30;99.30;;;;;;5034342;28;20041;-77
2022/03/11 00:54:36;;;;;;;11.55;7.38;;;5.30;99.20;;;;;;5033481;28;20103;-77
2022/03/11 00:57:02;;;;;;;11.32;6.10;;;5.20;99.50;;;;;;5033439;28;20122;-77
2022/03/11 00:59:28;;;;;;;17.30;7.07;;;5.20;99.90;;;;;;5032638;28;20045;-77
2022/03/11 01:01:53;;;;;;;9.75;6.13;;;5.20;99.90;;;;;;5033328;28;20037;-76
2022/03/11 01:04:19;;;;;;;10.15;6.18;;;5.20;99.90;;;;;;5034807;28;20108;-77
2022/03/11 01:06:44;;;;;;;9.90;6.32;;;5.20;99.90;;;;;;5033063;28;20168;-77
2022/03/11 01:09:10;;;;;;;8.38;5.80;;;5.10;99.90;;;;;;5034412;28;20052;-77
2022/03/11 01:11:36;;;;;;;8.50;5.85;;;5.10;99.90;;;;;;5032842;28;20037;-76
2022/03/11 01:14:03;;;;;;;9.60;5.93;;;5.10;99.90;;;;;;5032546;28;20053;-77
2022/03/11 01:16:29;;;;;;;10.60;6.15;;;5.10;99.90;;;;;;5032743;28;20080;-77
2022/03/11 01:18:55;;;;;;;12.02;5.45;;;5.00;99.90;;;;;;5034456;28;20049;-77
2022/03/11 01:21:21;;;;;;;10.20;6.47;;;5.00;99.90;;;;;;5032736;28;20107;-77
2022/03/11 01:23:46;;;;;;;9.52;6.43;;;5.00;99.90;;;;;;5033775;28;20407;-77
2022/03/11 01:26:12;;;;;;;11.68;6.35;;;4.90;99.90;;;;;;5032889;28;20084;-77
2022/03/11 01:28:41;;;;;;;8.98;5.75;;;4.90;99.90;;;;;;5033374;28;20068;-77
2022/03/11 01:31:11;;;;;;;10.75;6.85;;;4.90;99.90;;;;;;5034329;28;20775;-77
2022/03/11 01:33:38;;;;;;;10.70;7.07;;;4.90;99.90;;;;;;5032514;28;20088;-77
2022/03/11 01:36:04;;;;;;;10.45;6.43;;;4.90;99.90;;;;;;5031921;28;20205;-76
2022/03/11 01:38:30;;;;;;;11.27;6.35;;;4.90;99.90;;;;;;5033969;28;20037;-77
2022/03/11 01:40:55;;;;;;;10.48;5.97;;;4.90;99.90;;;;;;5034010;28;20045;-76
2022/03/11 01:43:21;;;;;;;8.55;6.18;;;4.80;99.90;;;;;;5033376;28;20073;-77
2022/03/11 01:45:46;;;;;;;9.05;7.05;;;4.80;99.90;;;;;;5032710;28;20045;-77
2022/03/11 01:48:12;;;;;;;11.32;7.00;;;4.80;99.90;;;;;;5033935;28;20033;-77
2022/03/11 01:50:40;;;;;;;11.68;7.65;;;4.70;99.90;;;;;;5030917;28;20041;-77
2022/03/11 01:53:10;;;;;;;13.32;6.97;;;4.70;99.90;;;;;;5032748;28;20067;-77
2022/03/11 01:55:37;;;;;;;13.00;7.40;;;4.70;99.90;;;;;;5031617;28;20045;-77
2022/03/11 01:58:05;;;;;;;11.60;6.88;;;4.60;99.90;;;;;;5033730;28;20407;-77
2022/03/11 02:00:31;;;;;;;13.10;7.90;;;4.60;99.90;;;;;;5032066;28;20392;-77
2022/03/11 02:02:57;;;;;;;9.18;7.07;;;4.60;99.90;;;;;;5031648;28;20124;-77
2022/03/11 02:05:23;;;;;;;14.05;7.20;;;4.50;99.90;;;;;;5033456;28;20038;-77
2022/03/11 02:07:49;;;;;;;11.43;7.72;;;4.50;99.90;;;;;;5032355;28;20434;-77
2022/03/11 02:10:16;;;;;;;17.08;9.18;;;4.50;99.90;;;;;;5031300;28;20050;-77
2022/03/11 02:12:42;;;;;;;11.27;7.72;;;4.50;99.90;;;;;;5031883;28;20483;-77
2022/03/11 02:15:09;;;;;;;12.32;7.60;;;4.50;99.90;;;;;;5033827;28;20650;-77
2022/03/11 02:17:35;;;;;;;11.38;7.95;;;4.40;99.90;;;;;;5032466;28;20111;-76
2022/03/11 02:20:01;;;;;;;19.42;10.10;;;4.40;99.90;;;;;;5032153;28;20083;-76
2022/03/11 02:22:28;;;;;;;13.88;8.45;;;4.40;99.90;;;;;;5031379;28;20053;-76
2022/03/11 02:24:54;;;;;;;14.77;8.63;;;4.30;99.90;;;;;;5031056;28;20136;-76
2022/03/11 02:27:21;;;;;;;15.30;8.65;;;4.30;99.90;;;;;;5032461;28;20530;-77
2022/03/11 02:29:47;;;;;;;15.07;8.90;;;4.30;99.90;;;;;;5031115;28;20132;-78
2022/03/11 02:32:12;;;;;;;15.20;9.52;;;4.30;99.90;;;;;;5030682;28;20128;-77
2022/03/11 02:34:38;;;;;;;13.98;9.02;;;4.20;99.90;;;;;;5042200;28;20074;-77
2022/03/11 02:37:06;;;;;;;15.43;9.77;;;4.20;99.90;;;;;;5032750;28;20049;-77
2022/03/11 02:39:32;;;;;;;12.95;9.45;;;4.20;99.90;;;;;;5032066;28;20096;-77
2022/03/11 02:42:00;;;;;;;15.30;10.32;;;4.20;99.90;;;;;;5032850;28;20495;-77
2022/03/11 02:44:29;;;;;;;18.48;10.23;;;4.20;99.90;;;;;;5031403;28;20124;-77
2022/03/11 02:46:55;;;;;;;14.52;9.63;;;4.10;99.90;;;;;;5030934;28;20484;-77
2022/03/11 02:49:21;;;;;;;14.00;9.98;;;4.10;99.90;;;;;;5031373;28;20050;-77
2022/03/11 02:51:46;;;;;;;16.50;10.15;;;4.10;99.90;;;;;;5031478;28;20053;-77
2022/03/11 02:54:12;;;;;;;14.98;9.38;;;4.10;99.90;;;;;;5031470;28;20135;-77
2022/03/11 02:56:37;;;;;;;18.42;11.63;;;4.10;99.90;;;;;;5031026;28;20088;-77
2022/03/11 02:59:03;;;;;;;15.60;10.77;;;4.00;99.90;;;;;;5030582;28;20137;-77
2022/03/11 03:01:28;;;;;;;16.75;10.55;;;4.10;99.90;;;;;;5030368;28;20483;-76
2022/03/11 03:03:54;;;;;;;17.95;9.82;;;4.00;99.90;;;;;;5030490;28;20384;-76
2022/03/11 03:06:19;;;;;;;16.60;10.43;;;4.00;99.90;;;;;;5031585;28;20429;-77
2022/03/11 03:08:45;;;;;;;15.77;11.10;;;4.00;99.90;;;;;;5030895;28;20498;-76
2022/03/11 03:11:11;;;;;;;19.30;11.32;;;4.00;99.90;;;;;;5035797;28;20048;-76
2022/03/11 03:13:36;;;;;;;18.63;11.43;;;4.00;99.90;;;;;;5042390;28;20479;-77
2022/03/11 03:16:02;;;;;;;17.20;11.38;;;4.00;99.90;;;;;;5030915;28;20052;-78
2022/03/11 03:18:29;;;;;;;16.13;11.30;;;4.00;99.90;;;;;;5030363;28;20114;-77
2022/03/11 03:20:54;;;;;;;18.30;11.48;;;4.00;99.90;;;;;;5031493;28;20529;-76
2022/03/11 03:23:20;;;;;;;17.48;11.93;;;3.90;99.90;;;;;;5030461;28;20086;-75
2022/03/11 03:25:45;;;;;;;18.40;11.77;;;3.90;99.90;;;;;;5030583;28;20085;-76
2022/03/11 03:28:12;;;;;;;21.75;12.00;;;3.90;99.90;;;;;;5030160;28;20049;-76
2022/03/11 03:30:37;;;;;;;22.35;13.10;;;3.90;99.90;;;;;;5031780;28;20037;-75
2022/03/11 03:33:03;;;;;;;18.38;11.80;;;3.80;99.90;;;;;;5031931;28;20068;-76
2022/03/11 03:35:29;;;;;;;22.85;13.65;;;3.80;99.90;;;;;;5030710;28;20052;-76
2022/03/11 03:37:54;;;;;;;22.38;13.00;;;3.80;99.90;;;;;;5031676;28;20063;-76
2022/03/11 03:40:20;;;;;;;20.15;13.38;;;3.80;99.90;;;;;;5031654;28;20037;-77
2022/03/11 03:42:47;;;;;;;20.67;13.20;;;3.80;99.90;;;;;;5030654;28;20060;-77
2022/03/11 03:45:13;;;;;;;18.63;13.55;;;3.80;99.90;;;;;;5031676;28;20103;-77
2022/03/11 03:47:38;;;;;;;22.80;13.10;;;3.70;99.90;;;;;;5035185;28;20483;-76
2022/03/11 03:50:04;;;;;;;21.73;13.15;;;3.70;99.90;;;;;;5040398;28;20135;-77
2022/03/11 03:52:30;;;;;;;25.40;14.32;;;3.70;99.90;;;;;;5030244;28;20071;-77
2022/03/11 03:54:56;;;;;;;20.35;12.55;;;3.70;99.90;;;;;;5029357;28;20487;-76
2022/03/11 03:57:22;;;;;;;19.70;13.50;;;3.70;99.90;;;;;;5031572;28;20448;-77
2022/03/11 03:59:48;;;;;;;19.08;12.65;;;3.70;99.90;;;;;;5031435;28;20077;-77
2022/03/11 04:02:13;;;;;;;20.90;13.82;;;3.70;99.90;;;;;;5030537;28;20141;-77
2022/03/11 04:04:39;;;;;;;18.98;13.35;;;3.60;99.90;;;;;;5030012;28;20392;-76
2022/03/11 04:07:05;;;;;;;21.15;13.68;;;3.60;99.90;;;;;;5031620;28;20041;-76
2022/03/11 04:09:30;;;;;;;21.42;13.45;;;3.60;99.90;;;;;;5030313;28;20049;-76
2022/03/11 04:11:56;;;;;;;19.45;13.13;;;3.60;99.90;;;;;;5030236;28;20096;-75
2022/03/11 04:14:22;;;;;;;22.80;13.57;;;3.60;99.90;;;;;;5030906;28;20492;-76
2022/03/11 04:16:47;;;;;;;24.67;13.07;;;3.50;99.90;;;;;;5030413;28;20045;-76
2022/03/11 04:19:14;;;;;;;23.02;13.90;;;3.50;99.90;;;;;;5031093;28;20041;-76
2022/03/11 04:21:40;;;;;;;21.00;13.27;;;3.50;99.90;;;;;;5030722;28;20558;-76
2022/03/11 04:24:13;;;;;;;21.17;13.00;;;3.50;99.90;;;;;;5028916;28;20407;-76
2022/03/11 04:26:40;;;;;;;20.33;14.05;;;3.40;99.90;;;;;;5030797;28;20103;-76
2022/03/11 04:29:05;;;;;;;26.48;15.88;;;3.40;99.90;;;;;;5029956;28;20049;-76
2022/03/11 04:31:31;;;;;;;23.98;13.68;;;3.40;99.90;;;;;;5028752;28;20045;-76
2022/03/11 04:33:57;;;;;;;20.58;13.35;;;3.40;99.90;;;;;;5031031;28;20377;-77
2022/03/11 04:36:23;;;;;;;23.85;14.13;;;3.40;99.90;;;;;;5029572;28;20049;-76
2022/03/11 04:38:48;;;;;;;23.75;14.07;;;3.40;99.90;;;;;;5030449;28;20064;-76
2022/03/11 04:41:14;;;;;;;25.95;15.90;;;3.40;99.90;;;;;;5031053;28;20049;-76
2022/03/11 04:43:39;;;;;;;27.02;15.85;;;3.40;99.90;;;;;;5029292;28;20492;-76
2022/03/11 04:46:05;;;;;;;24.52;14.85;;;3.40;99.90;;;;;;5030179;28;20041;-76
2022/03/11 04:48:31;;;;;;;23.00;14.43;;;3.40;99.90;;;;;;5030867;28;20129;-76
2022/03/11 04:50:57;;;;;;;25.88;15.18;;;3.30;99.90;;;;;;5031064;28;20052;-76
2022/03/11 04:53:23;;;;;;;21.75;14.70;;;3.30;99.90;;;;;;5030117;28;20072;-76
2022/03/11 04:55:49;;;;;;;27.67;16.17;;;3.20;99.90;;;;;;5030875;28;20045;-76
2022/03/11 04:58:14;;;;;;;22.95;15.30;;;3.20;99.90;;;;;;5028813;28;20049;-76
2022/03/11 05:00:40;;;;;;;23.48;14.73;;;3.20;99.90;;;;;;5029570;28;20054;-76
2022/03/11 05:03:05;;;;;;;23.88;14.68;;;3.20;99.90;;;;;;5030815;28;20476;-76
2022/03/11 05:05:31;;;;;;;25.73;16.50;;;3.20;99.90;;;;;;5028291;28;20045;-76
2022/03/11 05:07:57;;;;;;;25.45;14.02;;;3.20;99.90;;;;;;5030892;28;20053;-76
2022/03/11 05:10:22;;;;;;;24.08;14.05;;;3.10;99.90;;;;;;5030818;28;20045;-76
2022/03/11 05:12:48;;;;;;;22.88;14.57;;;3.10;99.90;;;;;;5040854;28;20045;-77
2022/03/11 05:15:13;;;;;;;25.08;15.30;;;3.10;99.90;;;;;;5031395;28;20049;-75
2022/03/11 05:17:39;;;;;;;27.60;15.77;;;3.00;99.90;;;;;;5042142;28;20048;-76
2022/03/11 05:20:05;;;;;;;23.60;15.05;;;3.00;99.90;;;;;;5034885;28;20053;-75
2022/03/11 05:22:31;;;;;;;24.23;14.85;;;3.00;99.90;;;;;;5032589;28;20055;-76
2022/03/11 05:24:57;;;;;;;22.35;14.55;;;3.00;99.90;;;;;;5050620;28;20060;-76
2022/03/11 05:27:23;;;;;;;24.70;16.02;;;3.00;99.90;;;;;;5052051;28;20037;-76
2022/03/11 05:29:48;;;;;;;27.70;16.15;;;2.90;99.90;;;;;;5052885;28;20056;-76
2022/03/11 05:32:15;;;;;;;21.58;14.10;;;2.90;99.90;;;;;;5034399;28;20052;-76
2022/03/11 05:34:42;;;;;;;26.33;15.63;;;2.90;99.90;;;;;;5034208;28;20160;-76
2022/03/11 05:37:09;;;;;;;25.23;15.40;;;2.90;99.90;;;;;;5037398;28;20137;-76
2022/03/11 05:39:36;;;;;;;25.80;15.93;;;2.90;99.90;;;;;;5032184;28;20049;-76
2022/03/11 05:42:02;;;;;;;21.38;14.20;;;2.90;99.90;;;;;;5031742;28;20060;-76
2022/03/11 05:44:27;;;;;;;25.45;14.90;;;2.90;99.90;;;;;;5032536;28;20132;-76
2022/03/11 05:46:53;;;;;;;28.08;16.00;;;2.80;99.90;;;;;;5033928;28;20132;-76
2022/03/11 05:49:19;;;;;;;27.58;15.32;;;2.80;99.90;;;;;;5032085;28;20053;-76
2022/03/11 05:51:45;;;;;;;23.92;15.55;;;2.80;99.90;;;;;;5031975;28;20132;-76
2022/03/11 05:54:11;;;;;;;23.13;15.70;;;2.80;99.90;;;;;;5032573;28;20447;-76
2022/03/11 05:56:39;;;;;;;24.55;16.25;;;2.80;99.90;;;;;;5031530;28;20046;-76
2022/03/11 05:59:05;;;;;;;21.35;14.95;;;2.70;99.90;;;;;;5032476;28;20038;-77
2022/03/11 06:01:34;;;;;;;22.75;14.88;;;2.70;99.90;;;;;;5032975;28;20136;-76
2022/03/11 06:04:04;;;;;;;23.42;13.93;;;2.70;99.90;;;;;;5032041;28;20041;-76
2022/03/11 06:06:30;;;;;;;24.65;14.32;;;2.70;99.90;;;;;;5032120;28;20045;-76
2022/03/11 06:08:56;;;;;;;25.70;16.02;;;2.70;99.90;;;;;;5032792;28;20099;-77
2022/03/11 06:11:22;;;;;;;25.42;15.15;;;2.60;99.90;;;;;;5035180;28;20036;-76
2022/03/11 06:13:47;;;;;;;25.20;14.82;;;2.60;99.90;;;;;;5032035;28;20049;-77
2022/03/11 06:16:13;;;;;;;28.08;16.10;;;2.60;99.90;;;;;;5034615;28;20403;-77
2022/03/11 06:18:39;;;;;;;21.55;13.95;;;2.60;99.90;;;;;;5052868;28;20094;-77
2022/03/11 06:21:05;;;;;;;21.38;14.50;;;2.60;99.90;;;;;;5043247;28;20053;-77
2022/03/11 06:23:31;;;;;;;20.13;13.25;;;2.60;99.90;;;;;;5047446;28;20064;-77
2022/03/11 06:25:58;;;;;;;23.27;14.85;;;2.60;99.90;;;;;;5052995;28;20049;-77
2022/03/11 06:28:23;;;;;;;23.83;14.13;;;2.60;99.90;;;;;;5032089;28;20045;-76
2022/03/11 06:30:49;;;;;;;23.90;14.45;;;2.60;99.90;;;;;;5031006;28;20057;-76
2022/03/11 06:33:15;;;;;;;24.27;13.60;;;2.60;99.90;;;;;;5037326;28;20057;-77
2022/03/11 06:35:41;;;;;;;22.60;15.15;;;2.70;99.90;;;;;;5041494;28;20044;-77
2022/03/11 06:38:07;;;;;;;23.48;14.45;;;2.70;99.90;;;;;;5038900;28;20826;-77
2022/03/11 06:40:32;;;;;;;22.38;14.77;;;2.70;99.90;;;;;;5051117;28;20075;-76
2022/03/11 06:42:58;;;;;;;25.90;16.98;;;2.70;99.90;;;;;;5050483;28;20407;-76
2022/03/11 06:45:24;;;;;;;26.52;15.93;;;2.80;99.90;;;;;;5033143;28;20049;-76
2022/03/11 06:47:49;;;;;;;22.95;14.30;;;2.80;99.90;;;;;;5046554;28;20052;-77
2022/03/11 06:50:17;;;;;;;23.83;14.98;;;2.80;99.90;;;;;;5031293;28;20132;-76
2022/03/11 06:52:43;;;;;;;23.98;14.25;;;2.80;99.90;;;;;;5030278;28;20057;-76
2022/03/11 06:55:10;;;;;;;25.15;15.52;;;2.80;99.90;;;;;;5031390;28;20045;-76
2022/03/11 06:57:35;;;;;;;23.15;13.27;;;2.90;99.90;;;;;;5032397;28;20060;-75
2022/03/11 07:00:04;;;;;;;27.20;15.55;;;2.90;99.90;;;;;;5030451;28;20041;-76
2022/03/11 07:02:30;;;;;;;26.98;15.13;;;2.90;99.90;;;;;;5031734;28;20052;-76
2022/03/11 07:04:55;;;;;;;23.30;15.48;;;3.00;99.90;;;;;;5038486;28;20045;-76
2022/03/11 07:07:21;;;;;;;25.67;15.10;;;3.00;99.90;;;;;;5033670;28;20051;-76
2022/03/11 07:09:47;;;;;;;22.40;14.95;;;3.10;99.90;;;;;;5045662;28;20119;-76
2022/03/11 07:12:12;;;;;;;21.33;13.93;;;3.10;99.90;;;;;;5038319;28;20049;-76
2022/03/11 07:14:38;;;;;;;23.15;14.98;;;3.20;99.90;;;;;;5040514;28;20499;-75
2022/03/11 07:17:05;;;;;;;22.77;14.40;;;3.20;99.90;;;;;;5036305;28;20041;-76
2022/03/11 07:19:31;;;;;;;28.60;14.85;;;3.30;99.90;;;;;;5043632;28;20106;-77
2022/03/11 07:21:59;;;;;;;22.58;14.05;;;3.40;99.90;;;;;;5034458;28;20052;-76
2022/03/11 07:24:25;;;;;;;23.45;15.70;;;3.40;99.90;;;;;;5039697;28;20577;-77
2022/03/11 07:26:50;;;;;;;21.33;14.10;;;3.50;99.90;;;;;;5046692;28;20373;-77
2022/03/11 07:29:16;;;;;;;19.75;13.05;;;3.50;99.90;;;;;;5047150;28;20052;-77
2022/03/11 07:31:42;;;;;;;21.80;15.15;;;3.60;99.90;;;;;;5046773;28;20045;-77
2022/03/11 07:34:07;;;;;;;22.75;13.68;;;3.60;99.90;;;;;;5046218;28;20045;-76
2022/03/11 07:36:34;;;;;;;21.70;14.40;;;3.70;99.90;;;;;;5031472;28;20037;-76
2022/03/11 07:39:01;;;;;;;26.10;16.05;;;3.80;99.90;;;;;;5052641;28;20045;-76
2022/03/11 07:41:26;;;;;;;24.50;13.40;;;3.90;99.90;;;;;;5040751;28;20038;-77
2022/03/11 07:43:52;;;;;;;20.77;13.40;;;3.90;99.90;;;;;;5036901;28;20055;-76
2022/03/11 07:46:19;;;;;;;22.50;14.90;;;4.00;99.90;;;;;;5050256;28;20056;-75
2022/03/11 07:48:45;;;;;;;25.25;14.93;;;4.00;99.90;;;;;;5050056;28;20056;-76
2022/03/11 07:51:10;;;;;;;19.33;14.35;;;4.10;99.90;;;;;;5050245;28;20049;-76
2022/03/11 07:53:36;;;;;;;21.23;14.38;;;4.20;99.90;;;;;;5049857;28;20459;-76
2022/03/11 07:56:07;;;;;;;23.95;15.43;;;4.20;99.90;;;;;;5049378;28;20049;-75
2022/03/11 07:58:33;;;;;;;24.15;14.70;;;4.30;99.90;;;;;;5049983;28;20080;-75
2022/03/11 08:00:58;;;;;;;24.52;14.65;;;4.40;99.90;;;;;;5037386;28;20083;-76
2022/03/11 08:03:24;;;;;;;27.95;17.98;;;4.50;99.90;;;;;;5032727;28;20080;-76
2022/03/11 08:05:50;;;;;;;21.80;14.32;;;4.40;99.90;;;;;;5035284;28;20394;-77
2022/03/11 08:08:16;;;;;;;26.05;14.43;;;4.50;99.90;;;;;;5034335;28;20038;-79
2022/03/11 08:10:42;;;;;;;20.70;15.20;;;4.60;99.90;;;;;;5037578;28;20128;-76
2022/03/11 08:13:08;;;;;;;20.35;14.52;;;4.60;99.90;;;;;;5033282;28;20113;-82
2022/03/11 08:15:35;;;;;;;18.98;13.40;;;4.70;99.90;;;;;;5043255;28;20490;-80
2022/03/11 08:18:01;;;;;;;19.60;13.88;;;4.70;99.90;;;;;;5062065;28;20051;-75
2022/03/11 08:20:26;;;;;;;22.80;14.77;;;4.80;99.90;;;;;;5039723;28;20045;-75
2022/03/11 08:22:52;;;;;;;21.55;14.93;;;4.90;99.90;;;;;;5040716;28;20403;-74
2022/03/11 08:25:20;;;;;;;24.13;14.90;;;5.00;99.90;;;;;;5050446;28;20058;-74
2022/03/11 08:27:46;;;;;;;26.80;15.63;;;5.10;99.90;;;;;;5044369;28;20057;-75
2022/03/11 08:30:12;;;;;;;19.27;12.82;;;5.20;99.90;;;;;;5050030;28;20045;-82
2022/03/11 08:32:39;;;;;;;22.88;13.95;;;5.30;99.90;;;;;;5050125;28;20475;-79
2022/03/11 08:35:06;;;;;;;21.17;13.85;;;5.40;99.90;;;;;;5046095;28;20060;-79
2022/03/11 08:37:33;;;;;;;24.88;14.23;;;5.50;99.90;;;;;;5034459;28;20045;-76
2022/03/11 08:39:59;;;;;;;24.55;15.45;;;5.50;99.90;;;;;;5034075;28;20053;-80
2022/03/11 08:42:24;;;;;;;19.67;14.30;;;5.60;99.90;;;;;;5035847;28;20628;-71
2022/03/11 08:44:50;;;;;;;22.70;15.45;;;5.60;99.90;;;;;;5049691;28;20099;-70
2022/03/11 08:47:16;;;;;;;23.30;14.73;;;5.80;99.90;;;;;;5033705;28;20054;-70
2022/03/11 08:49:42;;;;;;;23.25;14.30;;;5.70;99.90;;;;;;5032153;28;20049;-71
2022/03/11 08:52:08;;;;;;;22.35;14.48;;;5.80;99.90;;;;;;5045205;28;20052;-71
2022/03/11 08:54:34;;;;;;;21.35;13.27;;;5.90;99.90;;;;;;5050227;28;20051;-79
2022/03/11 08:56:59;;;;;;;18.67;13.68;;;5.90;99.90;;;;;;5029229;28;20042;-78
2022/03/11 08:59:25;;;;;;;21.48;14.52;;;6.00;99.90;;;;;;5033814;28;20115;-79
2022/03/11 09:01:51;;;;;;;21.08;13.90;;;6.10;99.90;;;;;;5034406;28;20045;-75
2022/03/11 09:04:17;;;;;;;21.00;14.02;;;6.20;99.90;;;;;;5034085;28;20140;-79
2022/03/11 09:06:43;;;;;;;21.30;14.63;;;6.30;99.90;;;;;;5032358;28;20056;-76
2022/03/11 09:09:08;;;;;;;23.48;14.10;;;6.40;99.90;;;;;;5042650;28;20049;-81
2022/03/11 09:11:35;;;;;;;28.23;14.20;;;6.50;99.90;;;;;;5041713;28;20056;-78
2022/03/11 09:14:01;;;;;;;22.90;14.43;;;6.60;99.90;;;;;;5033159;28;20049;-78
2022/03/11 09:16:27;;;;;;;20.83;14.10;;;6.70;99.90;;;;;;5035102;28;20049;-78
2022/03/11 09:18:54;;;;;;;19.48;13.85;;;6.70;99.90;;;;;;5033535;28;20048;-78
2022/03/11 09:21:20;;;;;;;21.92;13.88;;;6.80;99.90;;;;;;5032849;28;20049;-79
2022/03/11 09:23:47;;;;;;;21.60;14.95;;;6.90;99.90;;;;;;5039392;28;20069;-77
2022/03/11 09:26:13;;;;;;;23.08;13.95;;;6.90;99.90;;;;;;5032343;28;20050;-77
2022/03/11 09:28:39;;;;;;;20.50;14.32;;;6.80;99.90;;;;;;5031941;28;20503;-79
2022/03/11 09:31:08;;;;;;;19.55;13.85;;;6.90;99.90;;;;;;5048805;28;20048;-79
2022/03/11 09:33:38;;;;;;;22.38;15.52;;;7.00;99.90;;;;;;5051111;28;20059;-79
2022/03/11 09:36:05;;;;;;;21.00;15.77;;;7.00;99.90;;;;;;5052903;28;20402;-78
2022/03/11 09:38:31;;;;;;;25.85;13.80;;;7.10;99.90;;;;;;5039837;28;20075;-79
2022/03/11 09:40:58;;;;;;;23.77;14.23;;;7.10;99.90;;;;;;5033508;28;20431;-78
2022/03/11 09:43:26;;;;;;;22.15;14.57;;;7.10;99.90;;;;;;5032313;28;20411;-79
2022/03/11 09:45:52;;;;;;;20.15;14.40;;;7.20;99.90;;;;;;5033168;28;20095;-79
2022/03/11 09:48:18;;;;;;;21.65;14.25;;;7.30;99.90;;;;;;5031768;28;20057;-78
2022/03/11 09:50:44;;;;;;;24.13;13.55;;;7.30;99.90;;;;;;5039292;28;20040;-79
2022/03/11 09:53:11;;;;;;;20.00;14.68;;;7.40;99.90;;;;;;5041482;28;20053;-78
2022/03/11 09:55:38;;;;;;;22.30;15.02;;;7.50;99.90;;;;;;5030901;28;20095;-79
2022/03/11 09:58:03;;;;;;;21.15;14.25;;;7.50;98.40;;;;;;5032545;28;20062;-77
2022/03/11 10:00:29;;;;;;;21.42;14.15;;;7.50;98.00;;;;;;5032089;28;20438;-79
2022/03/11 10:02:55;;;;;;;19.75;14.82;;;7.50;98.90;;;;;;5031580;28;20080;-79
2022/03/11 10:05:22;;;;;;;22.05;13.73;;;7.50;97.70;;;;;;5033878;28;20037;-79
2022/03/11 10:07:59;;;;;;;21.27;14.32;;;7.60;97.80;;;;;;5031799;28;20092;-78
2022/03/11 10:10:24;;;;;;;25.42;14.98;;;7.70;98.50;;;;;;5033366;28;20091;-78
2022/03/11 10:12:51;;;;;;;20.35;14.32;;;7.70;97.10;;;;;;5032268;28;20073;-78
2022/03/11 10:15:22;;;;;;;23.90;15.63;;;7.80;97.40;;;;;;5031148;28;20057;-79
2022/03/11 10:17:47;;;;;;;22.55;15.57;;;7.90;97.60;;;;;;5033250;28;20056;-78
2022/03/11 10:20:15;;;;;;;18.73;12.85;;;8.00;97.10;;;;;;5031976;28;20404;-76
2022/03/11 10:22:42;;;;;;;20.08;14.52;;;8.00;96.30;;;;;;5030777;28;20607;-78
2022/03/11 10:25:16;;;;;;;23.13;14.52;;;8.00;95.10;;;;;;5031605;28;20061;-79
2022/03/11 10:28:13;;;;;;;22.08;14.57;;;8.00;94.70;;;;;;5031545;28;20098;-79
2022/03/11 10:30:42;;;;;;;22.05;14.00;;;8.00;94.40;;;;;;5030211;28;20435;-79
2022/03/11 10:33:10;;;;;;;24.70;13.90;;;8.00;93.90;;;;;;5031883;28;20499;-79
2022/03/11 10:35:47;;;;;;;22.65;14.50;;;8.10;94.50;;;;;;5034675;28;20049;-79
2022/03/11 10:38:18;;;;;;;20.58;13.30;;;8.20;95.10;;;;;;5032121;28;20099;-78
2022/03/11 10:40:55;;;;;;;20.75;14.90;;;8.30;94.20;;;;;;5052859;28;20048;-79
2022/03/11 10:43:25;;;;;;;21.27;14.73;;;8.30;94.00;;;;;;5050951;28;20052;-78
2022/03/11 10:46:01;;;;;;;23.02;14.63;;;8.40;94.20;;;;;;5051072;28;20053;-78
2022/03/11 10:48:47;;;;;;;23.10;14.75;;;8.50;94.10;;;;;;5051672;28;20056;-78
2022/03/11 10:51:20;;;;;;;19.30;13.70;;;8.50;92.70;;;;;;5050569;28;20053;-79
2022/03/11 10:53:49;;;;;;;19.35;13.80;;;8.60;93.40;;;;;;5051333;28;20052;-78
2022/03/11 10:56:24;;;;;;;23.25;14.65;;;8.70;93.20;;;;;;5052020;28;20048;-78
2022/03/11 10:58:50;;;;;;;21.77;14.27;;;8.70;92.40;;;;;;5051426;28;20065;-77
2022/03/11 11:01:33;;;;;;;22.42;14.80;;;8.80;92.60;;;;;;5050554;28;20525;-77
2022/03/11 11:04:01;;;;;;;27.23;16.17;;;8.80;91.50;;;;;;5049083;28;20403;-78
2022/03/11 11:06:27;;;;;;;19.80;14.30;;;8.90;91.50;;;;;;5037065;28;20479;-80
2022/03/11 11:08:54;;;;;;;24.02;15.20;;;9.00;91.30;;;;;;5038834;28;20063;-78
2022/03/11 11:11:21;;;;;;;22.08;15.70;;;9.00;91.40;;;;;;5048988;28;20057;-76
2022/03/11 11:13:46;;;;;;;21.00;15.70;;;9.10;90.80;;;;;;5030364;28;20049;-78
2022/03/11 11:16:12;;;;;;;21.80;14.70;;;9.10;90.50;;;;;;5032082;28;20451;-78
2022/03/11 11:18:39;;;;;;;19.55;14.43;;;9.10;90.60;;;;;;5036530;28;20480;-78
2022/03/11 11:21:09;;;;;;;21.25;14.82;;;9.10;90.20;;;;;;5036811;28;20061;-75
2022/03/11 11:23:36;;;;;;;19.15;14.57;;;9.00;90.10;;;;;;5030152;28;20412;-77
2022/03/11 11:26:03;;;;;;;22.13;14.45;;;9.00;89.40;;;;;;5031149;28;20041;-76
2022/03/11 11:28:29;;;;;;;23.02;14.82;;;8.90;88.50;;;;;;5042622;28;20419;-76
2022/03/11 11:30:55;;;;;;;19.52;13.65;;;9.00;90.50;;;;;;5051649;28;20087;-73
2022/03/11 11:33:21;;;;;;;19.38;14.02;;;9.10;90.80;;;;;;5049827;28;20075;-75
2022/03/11 11:35:54;;;;;;;29.38;14.65;;;9.20;90.00;;;;;;5051352;28;20045;-75
2022/03/11 11:38:38;;;;;;;20.38;14.05;;;9.20;90.20;;;;;;5050576;28;20048;-76
2022/03/11 11:41:25;;;;;;;20.25;14.63;;;9.30;87.80;;;;;;5049966;28;20132;-75
2022/03/11 11:44:00;;;;;;;23.85;15.20;;;9.30;85.40;;;;;;5050218;28;20048;-76
2022/03/11 11:46:30;;;;;;;21.02;14.73;;;9.30;86.80;;;;;;5050564;28;20843;-79
2022/03/11 11:48:57;;;;;;;19.33;13.52;;;9.40;87.10;;;;;;5050003;28;20486;-76
2022/03/11 11:51:43;;;;;;;19.38;13.88;;;9.40;86.60;;;;;;5036438;28;20102;-73
2022/03/11 11:54:11;;;;;;;18.67;14.52;;;9.40;84.90;;;;;;5029449;28;20064;-71
2022/03/11 11:56:45;;;;;;;21.35;13.93;;;9.40;85.10;;;;;;5030006;28;20092;-80
2022/03/11 11:59:24;;;;;;;18.75;13.98;;;9.40;85.70;;;;;;5031118;28;20053;-86
2022/03/11 12:01:57;;;;;;;19.98;13.18;;;9.50;83.00;;;;;;5040941;28;20399;-79
2022/03/11 12:04:33;;;;;;;18.30;13.52;;;9.60;84.00;;;;;;5050914;28;20539;-78
2022/03/11 12:07:12;;;;;;;20.63;14.65;;;9.60;82.50;;;;;;5052034;28;20438;-78
2022/03/11 12:09:38;;;;;;;19.85;14.93;;;9.60;82.30;;;;;;5050842;28;20112;-79
2022/03/11 12:12:19;;;;;;;17.35;13.40;;;9.60;80.70;;;;;;5051444;28;20563;-79
2022/03/11 12:14:57;;;;;;;19.38;13.40;;;9.60;81.60;;;;;;5033458;28;20095;-80
2022/03/11 12:17:44;;;;;;;20.17;14.02;;;9.70;79.70;;;;;;5030877;28;20049;-80
2022/03/11 12:20:35;;;;;;;17.05;12.20;;;9.70;80.80;;;;;;5030804;28;20132;-79
2022/03/11 12:23:16;;;;;;;18.55;12.57;;;9.80;79.30;;;;;;5030160;28;20404;-82
2022/03/11 12:26:00;;;;;;;20.90;13.80;;;9.90;79.80;;;;;;5047059;28;20498;-80
2022/03/11 12:28:31;;;;;;;21.75;13.23;;;10.00;78.50;;;;;;5029991;28;20045;-81
2022/03/11 12:31:02;;;;;;;15.40;10.95;;;10.00;77.30;;;;;;5030367;28;20060;-81
2022/03/11 12:33:42;;;;;;;23.60;12.65;;;10.00;78.10;;;;;;5031358;28;20522;-80
2022/03/11 12:36:16;;;;;;;20.17;13.43;;;10.00;77.70;;;;;;5029617;28;20411;-80
2022/03/11 12:38:43;;;;;;;21.25;12.77;;;10.10;76.20;;;;;;5030517;28;20417;-79